sensor_id;sensor_type;location;lat;lon;timestamp;temperature;humidity
30399;DHT22;17195;50.838;7.214;2024-03-23T00:52:27;8.90;99.90
30399;DHT22;17195;50.838;7.214;2024-03-23T00:54:52;8.80;99.90
30399;DHT22;17195;50.838;7.214;2024-03-23T00:57:18;8.80;99.90
30399;DHT22;17195;50.838;7.214;2024-03-23T00:59:43;8.80;99.90
30399;DHT22;17195;50.838;7.214;2024-03-23T01:02:09;8.70;99.90
30399;DHT22;17195;50.838;7.214;2024-03-23T01:04:34;8.60;99.90
30399;DHT22;17195;50.838;7.214;2024-03-23T01:07:00;8.60;99.90
30399;DHT22;17195;50.838;7.214;2024-03-23T01:09:25;8.60;99.90
30399;DHT22;17195;50.838;7.214;2024-03-23T01:11:51;8.50;99.90
30399;DHT22;17195;50.838;7.214;2024-03-23T01:14:16;8.50;99.90
30399;DHT22;17195;50.838;7.214;2024-03-23T01:16:42;8.50;99.90
30399;DHT22;17195;50.838;7.214;2024-03-23T01:19:07;8.50;99.90
30399;DHT22;17195;50.838;7.214;2024-03-23T01:21:33;8.40;99.90
30399;DHT22;17195;50.838;7.214;2024-03-23T01:23:58;8.40;99.90
30399;DHT22;17195;50.838;7.214;2024-03-23T01:26:24;8.40;99.90
30399;DHT22;17195;50.838;7.214;2024-03-23T01:28:49;8.40;99.90
30399;DHT22;17195;50.838;7.214;2024-03-23T01:31:15;8.40;99.90
30399;DHT22;17195;50.838;7.214;2024-03-23T01:33:41;8.40;99.90
30399;DHT22;17195;50.838;7.214;2024-03-23T01:36:06;8.30;99.90
30399;DHT22;17195;50.838;7.214;2024-03-23T01:38:32;8.30;99.90
30399;DHT22;17195;50.838;7.214;2024-03-23T01:40:58;8.20;99.90
30399;DHT22;17195;50.838;7.214;2024-03-23T01:43:23;8.20;99.90
30399;DHT22;17195;50.838;7.214;2024-03-23T01:45:49;8.20;99.90
30399;DHT22;17195;50.838;7.214;2024-03-23T01:48:15;8.20;99.90
30399;DHT22;17195;50.838;7.214;2024-03-23T01:50:40;8.20;99.90
30399;DHT22;17195;50.838;7.214;2024-03-23T01:53:06;8.10;99.90
30399;DHT22;17195;50.838;7.214;2024-03-23T01:55:32;8.10;99.90
30399;DHT22;17195;50.838;7.214;2024-03-23T01:57:58;8.00;99.90
30399;DHT22;17195;50.838;7.214;2024-03-23T02:00:24;8.10;99.90
30399;DHT22;17195;50.838;7.214;2024-03-23T02:02:49;8.10;99.90
30399;DHT22;17195;50.838;7.214;2024-03-23T02:05:15;8.10;99.90
30399;DHT22;17195;50.838;7.214;2024-03-23T02:07:42;8.10;99.90
30399;DHT22;17195;50.838;7.214;2024-03-23T02:10:09;8.00;99.90
30399;DHT22;17195;50.838;7.214;2024-03-23T02:12:40;8.00;99.90
30399;DHT22;17195;50.838;7.214;2024-03-23T02:15:06;8.00;99.90
30399;DHT22;17195;50.838;7.214;2024-03-23T02:17:34;7.90;99.90
30399;DHT22;17195;50.838;7.214;2024-03-23T02:20:01;7.90;99.90
30399;DHT22;17195;50.838;7.214;2024-03-23T02:22:39;7.90;99.90
30399;DHT22;17195;50.838;7.214;2024-03-23T02:25:06;7.80;99.90
30399;DHT22;17195;50.838;7.214;2024-03-23T02:27:32;7.70;99.90
30399;DHT22;17195;50.838;7.214;2024-03-23T02:29:58;7.60;99.90
30399;DHT22;17195;50.838;7.214;2024-03-23T02:32:23;7.50;99.90
30399;DHT22;17195;50.838;7.214;2024-03-23T02:34:49;7.50;99.90
30399;DHT22;17195;50.838;7.214;2024-03-23T02:37:14;7.50;99.90
30399;DHT22;17195;50.838;7.214;2024-03-23T02:39:40;7.40;99.90
30399;DHT22;17195;50.838;7.214;2024-03-23T02:42:05;7.30;99.90
30399;DHT22;17195;50.838;7.214;2024-03-23T02:44:31;7.20;99.90
30399;DHT22;17195;50.838;7.214;2024-03-23T02:46:56;7.10;99.90
30399;DHT22;17195;50.838;7.214;2024-03-23T02:49:22;7.00;99.90
30399;DHT22;17195;50.838;7.214;2024-03-23T02:51:48;7.00;99.90
30399;DHT22;17195;50.838;7.214;2024-03-23T02:54:14;6.90;99.90
30399;DHT22;17195;50.838;7.214;2024-03-23T02:56:40;6.80;99.90
30399;DHT22;17195;50.838;7.214;2024-03-23T02:59:05;6.80;99.90
30399;DHT22;17195;50.838;7.214;2024-03-23T03:01:31;6.70;99.90
30399;DHT22;17195;50.838;7.214;2024-03-23T03:03:56;6.70;99.90
30399;DHT22;17195;50.838;7.214;2024-03-23T03:06:24;6.70;99.90
30399;DHT22;17195;50.838;7.214;2024-03-23T03:08:49;6.60;99.90
30399;DHT22;17195;50.838;7.214;2024-03-23T03:11:15;6.60;99.90
30399;DHT22;17195;50.838;7.214;2024-03-23T03:13:40;6.60;99.90
30399;DHT22;17195;50.838;7.214;2024-03-23T03:16:09;6.50;99.90
30399;DHT22;17195;50.838;7.214;2024-03-23T03:18:35;6.50;99.90
30399;DHT22;17195;50.838;7.214;2024-03-23T03:21:01;6.40;99.90
30399;DHT22;17195;50.838;7.214;2024-03-23T03:23:27;6.30;99.90
30399;DHT22;17195;50.838;7.214;2024-03-23T03:25:52;6.10;99.90
30399;DHT22;17195;50.838;7.214;2024-03-23T03:28:18;6.00;99.90
30399;DHT22;17195;50.838;7.214;2024-03-23T03:30:43;5.90;99.90
30399;DHT22;17195;50.838;7.214;2024-03-23T03:33:10;5.90;99.90
30399;DHT22;17195;50.838;7.214;2024-03-23T03:35:35;5.80;99.90
30399;DHT22;17195;50.838;7.214;2024-03-23T03:38:04;5.70;99.90
30399;DHT22;17195;50.838;7.214;2024-03-23T03:40:29;5.70;99.90
30399;DHT22;17195;50.838;7.214;2024-03-23T03:42:55;5.70;99.90
30399;DHT22;17195;50.838;7.214;2024-03-23T03:45:21;5.70;99.90
30399;DHT22;17195;50.838;7.214;2024-03-23T03:47:46;5.60;99.90
30399;DHT22;17195;50.838;7.214;2024-03-23T03:50:12;5.70;99.90
30399;DHT22;17195;50.838;7.214;2024-03-23T03:52:37;5.70;99.90
30399;DHT22;17195;50.838;7.214;2024-03-23T03:55:03;5.60;99.90
30399;DHT22;17195;50.838;7.214;2024-03-23T03:57:36;5.60;99.90
30399;DHT22;17195;50.838;7.214;2024-03-23T04:00:02;5.70;99.90
30399;DHT22;17195;50.838;7.214;2024-03-23T04:02:28;5.60;99.90
30399;DHT22;17195;50.838;7.214;2024-03-23T04:04:54;5.60;99.90
30399;DHT22;17195;50.838;7.214;2024-03-23T04:07:19;5.60;99.90
30399;DHT22;17195;50.838;7.214;2024-03-23T04:09:48;5.60;99.90
30399;DHT22;17195;50.838;7.214;2024-03-23T04:12:13;5.60;99.90
30399;DHT22;17195;50.838;7.214;2024-03-23T04:14:39;5.60;99.90
30399;DHT22;17195;50.838;7.214;2024-03-23T04:17:04;5.60;99.90
30399;DHT22;17195;50.838;7.214;2024-03-23T04:19:30;5.60;99.90
30399;DHT22;17195;50.838;7.214;2024-03-23T04:21:55;5.50;99.90
30399;DHT22;17195;50.838;7.214;2024-03-23T04:24:21;5.60;99.90
30399;DHT22;17195;50.838;7.214;2024-03-23T04:26:47;5.60;99.90
30399;DHT22;17195;50.838;7.214;2024-03-23T04:29:13;5.60;99.90
30399;DHT22;17195;50.838;7.214;2024-03-23T04:31:39;5.60;99.90
30399;DHT22;17195;50.838;7.214;2024-03-23T04:34:04;5.60;99.90
30399;DHT22;17195;50.838;7.214;2024-03-23T04:36:30;5.60;99.90
30399;DHT22;17195;50.838;7.214;2024-03-23T04:39:00;5.60;99.90
30399;DHT22;17195;50.838;7.214;2024-03-23T04:41:26;5.60;99.90
30399;DHT22;17195;50.838;7.214;2024-03-23T04:43:52;5.60;99.90
30399;DHT22;17195;50.838;7.214;2024-03-23T04:46:17;5.60;99.90
30399;DHT22;17195;50.838;7.214;2024-03-23T04:48:43;5.60;99.90
30399;DHT22;17195;50.838;7.214;2024-03-23T04:51:10;5.70;99.90
30399;DHT22;17195;50.838;7.214;2024-03-23T04:53:38;5.70;99.90
30399;DHT22;17195;50.838;7.214;2024-03-23T04:56:03;5.70;99.90
30399;DHT22;17195;50.838;7.214;2024-03-23T04:58:29;5.70;99.90
30399;DHT22;17195;50.838;7.214;2024-03-23T05:00:58;5.80;99.90
30399;DHT22;17195;50.838;7.214;2024-03-23T05:03:24;5.90;99.90
30399;DHT22;17195;50.838;7.214;2024-03-23T05:05:49;6.00;99.90
30399;DHT22;17195;50.838;7.214;2024-03-23T05:08:15;6.10;99.90
30399;DHT22;17195;50.838;7.214;2024-03-23T05:10:42;6.10;99.90
30399;DHT22;17195;50.838;7.214;2024-03-23T05:13:07;6.10;99.90
30399;DHT22;17195;50.838;7.214;2024-03-23T05:15:33;6.10;99.90
30399;DHT22;17195;50.838;7.214;2024-03-23T05:17:58;6.10;99.90
30399;DHT22;17195;50.838;7.214;2024-03-23T05:20:24;6.10;99.90
30399;DHT22;17195;50.838;7.214;2024-03-23T05:22:50;6.10;99.90
30399;DHT22;17195;50.838;7.214;2024-03-23T05:25:16;6.10;99.90
30399;DHT22;17195;50.838;7.214;2024-03-23T05:27:42;6.00;99.90
30399;DHT22;17195;50.838;7.214;2024-03-23T05:30:07;6.00;99.90
30399;DHT22;17195;50.838;7.214;2024-03-23T05:32:34;6.00;99.90
30399;DHT22;17195;50.838;7.214;2024-03-23T05:35:00;6.00;99.90
30399;DHT22;17195;50.838;7.214;2024-03-23T05:37:25;5.90;99.90
30399;DHT22;17195;50.838;7.214;2024-03-23T05:39:51;6.00;99.90
30399;DHT22;17195;50.838;7.214;2024-03-23T05:42:17;6.00;99.90
30399;DHT22;17195;50.838;7.214;2024-03-23T05:44:44;6.00;99.90
30399;DHT22;17195;50.838;7.214;2024-03-23T05:47:10;6.00;99.90
30399;DHT22;17195;50.838;7.214;2024-03-23T05:49:36;6.00;99.90
30399;DHT22;17195;50.838;7.214;2024-03-23T05:52:02;6.00;99.90
30399;DHT22;17195;50.838;7.214;2024-03-23T05:54:29;6.00;99.90
30399;DHT22;17195;50.838;7.214;2024-03-23T05:56:55;6.00;99.90
30399;DHT22;17195;50.838;7.214;2024-03-23T05:59:21;6.00;99.90
30399;DHT22;17195;50.838;7.214;2024-03-23T06:01:47;6.00;99.90
30399;DHT22;17195;50.838;7.214;2024-03-23T06:04:12;6.00;99.90
30399;DHT22;17195;50.838;7.214;2024-03-23T06:06:39;6.00;99.90
30399;DHT22;17195;50.838;7.214;2024-03-23T06:09:05;6.10;99.90
30399;DHT22;17195;50.838;7.214;2024-03-23T06:11:30;6.10;99.90
30399;DHT22;17195;50.838;7.214;2024-03-23T06:13:56;6.10;99.90
30399;DHT22;17195;50.838;7.214;2024-03-23T06:16:22;6.10;99.90
30399;DHT22;17195;50.838;7.214;2024-03-23T06:18:50;6.10;99.90
30399;DHT22;17195;50.838;7.214;2024-03-23T06:21:16;6.10;99.90
30399;DHT22;17195;50.838;7.214;2024-03-23T06:23:42;6.10;99.90
30399;DHT22;17195;50.838;7.214;2024-03-23T06:26:07;6.10;99.90
30399;DHT22;17195;50.838;7.214;2024-03-23T06:28:34;6.10;99.90
30399;DHT22;17195;50.838;7.214;2024-03-23T06:30:59;6.10;99.90
30399;DHT22;17195;50.838;7.214;2024-03-23T06:33:25;6.10;99.90
30399;DHT22;17195;50.838;7.214;2024-03-23T06:35:51;6.00;99.90
30399;DHT22;17195;50.838;7.214;2024-03-23T06:38:18;6.00;99.90
30399;DHT22;17195;50.838;7.214;2024-03-23T06:40:43;5.90;99.90
30399;DHT22;17195;50.838;7.214;2024-03-23T06:43:13;5.90;99.90
30399;DHT22;17195;50.838;7.214;2024-03-23T06:45:39;5.90;99.90
30399;DHT22;17195;50.838;7.214;2024-03-23T06:48:04;5.90;99.90
30399;DHT22;17195;50.838;7.214;2024-03-23T06:50:33;5.90;99.90
30399;DHT22;17195;50.838;7.214;2024-03-23T06:52:59;5.90;99.90
30399;DHT22;17195;50.838;7.214;2024-03-23T06:55:24;5.90;99.90
30399;DHT22;17195;50.838;7.214;2024-03-23T06:57:52;6.00;99.90
30399;DHT22;17195;50.838;7.214;2024-03-23T07:00:18;6.10;99.90
30399;DHT22;17195;50.838;7.214;2024-03-23T07:02:43;6.00;99.90
30399;DHT22;17195;50.838;7.214;2024-03-23T07:05:10;6.00;99.90
30399;DHT22;17195;50.838;7.214;2024-03-23T07:07:36;6.00;99.90
30399;DHT22;17195;50.838;7.214;2024-03-23T07:10:02;6.00;99.90
30399;DHT22;17195;50.838;7.214;2024-03-23T07:12:28;6.10;99.90
30399;DHT22;17195;50.838;7.214;2024-03-23T07:14:54;6.20;99.90
30399;DHT22;17195;50.838;7.214;2024-03-23T07:17:19;6.30;99.90
30399;DHT22;17195;50.838;7.214;2024-03-23T07:19:46;6.30;99.90
30399;DHT22;17195;50.838;7.214;2024-03-23T07:22:12;6.40;99.90
30399;DHT22;17195;50.838;7.214;2024-03-23T07:24:38;6.50;99.90
30399;DHT22;17195;50.838;7.214;2024-03-23T07:27:04;6.50;99.90
30399;DHT22;17195;50.838;7.214;2024-03-23T07:29:30;6.60;99.90
30399;DHT22;17195;50.838;7.214;2024-03-23T07:31:55;6.60;99.90
30399;DHT22;17195;50.838;7.214;2024-03-23T07:34:21;6.60;99.90
30399;DHT22;17195;50.838;7.214;2024-03-23T07:36:46;6.60;99.90
30399;DHT22;17195;50.838;7.214;2024-03-23T07:39:12;6.70;99.90
30399;DHT22;17195;50.838;7.214;2024-03-23T07:41:37;6.70;99.90
30399;DHT22;17195;50.838;7.214;2024-03-23T07:44:03;6.70;99.90
30399;DHT22;17195;50.838;7.214;2024-03-23T07:46:29;6.80;99.90
30399;DHT22;17195;50.838;7.214;2024-03-23T07:48:54;6.90;99.90
30399;DHT22;17195;50.838;7.214;2024-03-23T07:51:23;7.10;99.90
30399;DHT22;17195;50.838;7.214;2024-03-23T07:53:48;7.20;99.90
30399;DHT22;17195;50.838;7.214;2024-03-23T07:56:15;7.20;99.90
30399;DHT22;17195;50.838;7.214;2024-03-23T07:58:41;7.30;99.90
30399;DHT22;17195;50.838;7.214;2024-03-23T08:01:12;7.40;99.90
30399;DHT22;17195;50.838;7.214;2024-03-23T08:03:40;7.50;99.90
30399;DHT22;17195;50.838;7.214;2024-03-23T08:08:38;7.80;99.90
30399;DHT22;17195;50.838;7.214;2024-03-23T08:11:04;8.00;99.90
30399;DHT22;17195;50.838;7.214;2024-03-23T08:13:30;8.20;99.90
30399;DHT22;17195;50.838;7.214;2024-03-23T08:15:57;8.40;99.90
30399;DHT22;17195;50.838;7.214;2024-03-23T08:18:23;8.50;99.90
30399;DHT22;17195;50.838;7.214;2024-03-23T08:20:58;8.50;99.90
30399;DHT22;17195;50.838;7.214;2024-03-23T08:23:28;8.60;99.90
30399;DHT22;17195;50.838;7.214;2024-03-23T08:26:04;8.50;99.90
30399;DHT22;17195;50.838;7.214;2024-03-23T08:28:30;8.60;99.90
30399;DHT22;17195;50.838;7.214;2024-03-23T08:30:56;8.70;99.90
30399;DHT22;17195;50.838;7.214;2024-03-23T08:33:23;8.60;99.90
30399;DHT22;17195;50.838;7.214;2024-03-23T08:35:55;8.50;99.90
30399;DHT22;17195;50.838;7.214;2024-03-23T08:38:22;8.50;99.90
30399;DHT22;17195;50.838;7.214;2024-03-23T08:40:48;8.90;99.90
30399;DHT22;17195;50.838;7.214;2024-03-23T08:43:13;9.20;99.90
30399;DHT22;17195;50.838;7.214;2024-03-23T08:45:39;9.30;99.90
30399;DHT22;17195;50.838;7.214;2024-03-23T08:48:05;9.50;99.90
30399;DHT22;17195;50.838;7.214;2024-03-23T08:50:30;9.10;99.90
30399;DHT22;17195;50.838;7.214;2024-03-23T08:52:56;8.90;99.90
30399;DHT22;17195;50.838;7.214;2024-03-23T08:55:21;8.70;99.90
30399;DHT22;17195;50.838;7.214;2024-03-23T08:57:47;8.80;99.90
30399;DHT22;17195;50.838;7.214;2024-03-23T09:00:13;8.70;99.90
30399;DHT22;17195;50.838;7.214;2024-03-23T09:02:39;8.60;99.90
30399;DHT22;17195;50.838;7.214;2024-03-23T09:05:05;8.80;99.90
30399;DHT22;17195;50.838;7.214;2024-03-23T09:07:31;8.90;99.90
30399;DHT22;17195;50.838;7.214;2024-03-23T09:09:57;9.10;99.90
30399;DHT22;17195;50.838;7.214;2024-03-23T09:12:23;9.20;99.90
30399;DHT22;17195;50.838;7.214;2024-03-23T09:14:49;9.40;99.90
30399;DHT22;17195;50.838;7.214;2024-03-23T09:17:15;9.50;99.90
30399;DHT22;17195;50.838;7.214;2024-03-23T09:19:41;9.50;99.90
30399;DHT22;17195;50.838;7.214;2024-03-23T09:22:06;9.70;99.90
30399;DHT22;17195;50.838;7.214;2024-03-23T09:24:32;9.90;99.90
30399;DHT22;17195;50.838;7.214;2024-03-23T09:26:57;10.00;99.90
30399;DHT22;17195;50.838;7.214;2024-03-23T09:29:23;9.90;99.90
30399;DHT22;17195;50.838;7.214;2024-03-23T09:31:48;10.00;99.90
30399;DHT22;17195;50.838;7.214;2024-03-23T09:34:14;9.90;99.90
30399;DHT22;17195;50.838;7.214;2024-03-23T09:36:40;9.90;99.90
30399;DHT22;17195;50.838;7.214;2024-03-23T09:39:07;9.90;99.90
30399;DHT22;17195;50.838;7.214;2024-03-23T09:41:34;10.10;99.90
30399;DHT22;17195;50.838;7.214;2024-03-23T09:44:00;10.30;99.90
30399;DHT22;17195;50.838;7.214;2024-03-23T09:46:26;10.50;99.90
30399;DHT22;17195;50.838;7.214;2024-03-23T09:48:54;10.80;99.90
30399;DHT22;17195;50.838;7.214;2024-03-23T09:51:20;10.50;99.90
30399;DHT22;17195;50.838;7.214;2024-03-23T09:53:46;10.20;99.90
30399;DHT22;17195;50.838;7.214;2024-03-23T09:56:11;10.00;99.90
30399;DHT22;17195;50.838;7.214;2024-03-23T09:58:37;9.60;99.90
30399;DHT22;17195;50.838;7.214;2024-03-23T10:01:03;9.20;99.90
30399;DHT22;17195;50.838;7.214;2024-03-23T10:03:28;8.90;99.90
30399;DHT22;17195;50.838;7.214;2024-03-23T10:06:01;8.80;99.90
30399;DHT22;17195;50.838;7.214;2024-03-23T10:08:29;9.00;99.90
30399;DHT22;17195;50.838;7.214;2024-03-23T10:10:55;9.30;99.90
30399;DHT22;17195;50.838;7.214;2024-03-23T10:13:27;9.50;99.90
30399;DHT22;17195;50.838;7.214;2024-03-23T10:15:58;9.50;99.90
30399;DHT22;17195;50.838;7.214;2024-03-23T10:18:25;9.70;99.90
30399;DHT22;17195;50.838;7.214;2024-03-23T10:21:10;9.70;99.90
30399;DHT22;17195;50.838;7.214;2024-03-23T10:23:39;9.70;99.90
30399;DHT22;17195;50.838;7.214;2024-03-23T10:29:03;9.60;99.90
30399;DHT22;17195;50.838;7.214;2024-03-23T10:31:33;9.60;99.90
30399;DHT22;17195;50.838;7.214;2024-03-23T10:34:03;9.70;99.90
30399;DHT22;17195;50.838;7.214;2024-03-23T10:36:30;9.70;99.90
30399;DHT22;17195;50.838;7.214;2024-03-23T10:38:56;9.80;99.90
30399;DHT22;17195;50.838;7.214;2024-03-23T10:41:26;10.00;99.90
30399;DHT22;17195;50.838;7.214;2024-03-23T10:43:53;10.10;99.90
30399;DHT22;17195;50.838;7.214;2024-03-23T10:46:20;10.20;99.90
30399;DHT22;17195;50.838;7.214;2024-03-23T10:48:46;10.00;99.90
30399;DHT22;17195;50.838;7.214;2024-03-23T10:51:13;9.90;99.90
30399;DHT22;17195;50.838;7.214;2024-03-23T10:53:39;9.30;99.90
30399;DHT22;17195;50.838;7.214;2024-03-23T10:56:06;8.50;99.90
30399;DHT22;17195;50.838;7.214;2024-03-23T10:58:48;8.30;99.90
30399;DHT22;17195;50.838;7.214;2024-03-23T11:01:14;8.40;99.90
30399;DHT22;17195;50.838;7.214;2024-03-23T11:03:45;8.70;99.90
30399;DHT22;17195;50.838;7.214;2024-03-23T11:06:34;8.90;99.90
30399;DHT22;17195;50.838;7.214;2024-03-23T11:09:00;9.10;99.90
30399;DHT22;17195;50.838;7.214;2024-03-23T11:11:26;9.30;99.90
30399;DHT22;17195;50.838;7.214;2024-03-23T11:13:53;9.20;99.90
30399;DHT22;17195;50.838;7.214;2024-03-23T11:16:29;9.20;99.90
30399;DHT22;17195;50.838;7.214;2024-03-23T11:19:33;9.10;99.90
30399;DHT22;17195;50.838;7.214;2024-03-23T11:21:59;9.20;99.90
30399;DHT22;17195;50.838;7.214;2024-03-23T11:24:25;9.60;99.90
30399;DHT22;17195;50.838;7.214;2024-03-23T11:26:51;10.30;99.90
30399;DHT22;17195;50.838;7.214;2024-03-23T11:29:17;10.70;99.90
30399;DHT22;17195;50.838;7.214;2024-03-23T11:31:50;10.70;99.90
30399;DHT22;17195;50.838;7.214;2024-03-23T11:34:17;10.40;99.90
30399;DHT22;17195;50.838;7.214;2024-03-23T11:36:43;10.40;99.90
30399;DHT22;17195;50.838;7.214;2024-03-23T11:42:00;10.70;99.90
30399;DHT22;17195;50.838;7.214;2024-03-23T11:44:26;10.80;99.90
30399;DHT22;17195;50.838;7.214;2024-03-23T11:46:52;10.60;99.90
30399;DHT22;17195;50.838;7.214;2024-03-23T11:49:28;10.40;99.90
30399;DHT22;17195;50.838;7.214;2024-03-23T11:51:55;10.10;99.90
30399;DHT22;17195;50.838;7.214;2024-03-23T11:54:25;10.00;99.90
30399;DHT22;17195;50.838;7.214;2024-03-23T11:56:58;9.70;99.90
30399;DHT22;17195;50.838;7.214;2024-03-23T11:59:33;9.40;99.90
30399;DHT22;17195;50.838;7.214;2024-03-23T12:01:59;9.50;99.90
30399;DHT22;17195;50.838;7.214;2024-03-23T12:04:29;9.60;99.90
30399;DHT22;17195;50.838;7.214;2024-03-23T12:07:14;9.70;99.90
30399;DHT22;17195;50.838;7.214;2024-03-23T12:09:40;10.10;99.90
30399;DHT22;17195;50.838;7.214;2024-03-23T12:12:14;10.30;99.90
30399;DHT22;17195;50.838;7.214;2024-03-23T12:14:41;10.50;99.90
30399;DHT22;17195;50.838;7.214;2024-03-23T12:17:09;10.70;99.90
30399;DHT22;17195;50.838;7.214;2024-03-23T12:19:34;11.10;99.90
30399;DHT22;17195;50.838;7.214;2024-03-23T12:22:00;11.10;99.90
30399;DHT22;17195;50.838;7.214;2024-03-23T12:24:26;11.00;99.90
30399;DHT22;17195;50.838;7.214;2024-03-23T12:26:51;10.80;99.90
30399;DHT22;17195;50.838;7.214;2024-03-23T12:29:17;10.40;99.90
30399;DHT22;17195;50.838;7.214;2024-03-23T12:31:43;10.00;99.90
30399;DHT22;17195;50.838;7.214;2024-03-23T12:34:09;9.60;99.90
30399;DHT22;17195;50.838;7.214;2024-03-23T12:36:34;9.50;99.90
30399;DHT22;17195;50.838;7.214;2024-03-23T12:39:00;9.30;99.90
30399;DHT22;17195;50.838;7.214;2024-03-23T12:41:26;9.10;99.90
30399;DHT22;17195;50.838;7.214;2024-03-23T12:43:51;9.10;99.90
30399;DHT22;17195;50.838;7.214;2024-03-23T12:46:17;9.20;99.90
30399;DHT22;17195;50.838;7.214;2024-03-23T12:48:44;8.90;99.90
30399;DHT22;17195;50.838;7.214;2024-03-23T12:51:10;9.00;99.90
30399;DHT22;17195;50.838;7.214;2024-03-23T12:53:35;8.40;99.90
30399;DHT22;17195;50.838;7.214;2024-03-23T12:56:01;7.80;99.90
30399;DHT22;17195;50.838;7.214;2024-03-23T12:58:27;7.30;99.90
30399;DHT22;17195;50.838;7.214;2024-03-23T13:00:52;7.20;99.90
30399;DHT22;17195;50.838;7.214;2024-03-23T13:03:18;7.00;99.90
30399;DHT22;17195;50.838;7.214;2024-03-23T13:05:43;7.00;99.90
30399;DHT22;17195;50.838;7.214;2024-03-23T13:08:09;7.10;99.90
30399;DHT22;17195;50.838;7.214;2024-03-23T13:10:34;7.30;99.90
30399;DHT22;17195;50.838;7.214;2024-03-23T13:13:00;7.60;99.90
30399;DHT22;17195;50.838;7.214;2024-03-23T13:15:25;7.80;99.90
30399;DHT22;17195;50.838;7.214;2024-03-23T13:17:51;8.00;99.90
30399;DHT22;17195;50.838;7.214;2024-03-23T13:20:17;8.20;99.90
30399;DHT22;17195;50.838;7.214;2024-03-23T13:22:43;8.40;99.90
30399;DHT22;17195;50.838;7.214;2024-03-23T13:25:08;8.50;99.90
30399;DHT22;17195;50.838;7.214;2024-03-23T13:27:34;8.60;99.90
30399;DHT22;17195;50.838;7.214;2024-03-23T13:29:59;8.60;99.90
30399;DHT22;17195;50.838;7.214;2024-03-23T13:32:25;8.60;99.90
30399;DHT22;17195;50.838;7.214;2024-03-23T13:34:50;8.70;99.90
30399;DHT22;17195;50.838;7.214;2024-03-23T13:37:16;8.70;99.90
30399;DHT22;17195;50.838;7.214;2024-03-23T13:39:42;8.80;99.90
30399;DHT22;17195;50.838;7.214;2024-03-23T13:42:07;9.00;99.90
30399;DHT22;17195;50.838;7.214;2024-03-23T13:44:34;9.10;99.90
30399;DHT22;17195;50.838;7.214;2024-03-23T13:47:00;9.30;99.90
30399;DHT22;17195;50.838;7.214;2024-03-23T13:49:29;9.50;99.90
30399;DHT22;17195;50.838;7.214;2024-03-23T13:51:57;9.60;99.90
30399;DHT22;17195;50.838;7.214;2024-03-23T13:54:26;9.70;99.90
30399;DHT22;17195;50.838;7.214;2024-03-23T13:56:53;9.90;99.90
30399;DHT22;17195;50.838;7.214;2024-03-23T13:59:20;10.10;99.90
30399;DHT22;17195;50.838;7.214;2024-03-23T14:01:46;10.00;99.90
30399;DHT22;17195;50.838;7.214;2024-03-23T14:04:13;10.20;99.90
30399;DHT22;17195;50.838;7.214;2024-03-23T14:06:39;10.60;99.90
30399;DHT22;17195;50.838;7.214;2024-03-23T14:09:05;10.90;99.90
30399;DHT22;17195;50.838;7.214;2024-03-23T14:11:34;11.10;99.90
30399;DHT22;17195;50.838;7.214;2024-03-23T14:14:00;10.90;99.90
30399;DHT22;17195;50.838;7.214;2024-03-23T14:16:25;10.70;99.90
30399;DHT22;17195;50.838;7.214;2024-03-23T14:18:51;10.70;99.90
30399;DHT22;17195;50.838;7.214;2024-03-23T14:21:17;10.40;99.90
30399;DHT22;17195;50.838;7.214;2024-03-23T14:23:42;10.30;99.90
30399;DHT22;17195;50.838;7.214;2024-03-23T14:26:08;9.90;99.90
30399;DHT22;17195;50.838;7.214;2024-03-23T14:28:34;9.30;99.90
30399;DHT22;17195;50.838;7.214;2024-03-23T14:31:00;8.90;99.90
30399;DHT22;17195;50.838;7.214;2024-03-23T14:33:26;8.50;99.90
30399;DHT22;17195;50.838;7.214;2024-03-23T14:35:52;7.50;99.90
30399;DHT22;17195;50.838;7.214;2024-03-23T14:38:19;6.70;99.90
30399;DHT22;17195;50.838;7.214;2024-03-23T14:40:45;6.30;99.90
30399;DHT22;17195;50.838;7.214;2024-03-23T14:43:11;6.10;99.90
30399;DHT22;17195;50.838;7.214;2024-03-23T14:45:36;6.10;99.90
30399;DHT22;17195;50.838;7.214;2024-03-23T14:48:02;6.20;99.90
30399;DHT22;17195;50.838;7.214;2024-03-23T14:50:28;6.30;99.90
30399;DHT22;17195;50.838;7.214;2024-03-23T14:52:53;6.30;99.90
30399;DHT22;17195;50.838;7.214;2024-03-23T14:55:19;6.40;99.90
30399;DHT22;17195;50.838;7.214;2024-03-23T14:57:45;6.50;99.90
30399;DHT22;17195;50.838;7.214;2024-03-23T15:00:10;6.60;99.90
30399;DHT22;17195;50.838;7.214;2024-03-23T15:02:37;6.70;99.90
30399;DHT22;17195;50.838;7.214;2024-03-23T15:05:03;6.90;99.90
30399;DHT22;17195;50.838;7.214;2024-03-23T15:07:33;7.10;99.90
30399;DHT22;17195;50.838;7.214;2024-03-23T15:09:58;7.40;99.90
30399;DHT22;17195;50.838;7.214;2024-03-23T15:12:24;7.60;99.90
30399;DHT22;17195;50.838;7.214;2024-03-23T15:14:49;7.60;99.90
30399;DHT22;17195;50.838;7.214;2024-03-23T15:17:15;7.60;99.90
30399;DHT22;17195;50.838;7.214;2024-03-23T15:19:40;7.60;99.90
30399;DHT22;17195;50.838;7.214;2024-03-23T15:22:08;7.50;99.90
30399;DHT22;17195;50.838;7.214;2024-03-23T15:24:35;6.80;99.90
30399;DHT22;17195;50.838;7.214;2024-03-23T15:27:02;5.60;99.90
30399;DHT22;17195;50.838;7.214;2024-03-23T15:29:28;5.00;99.90
30399;DHT22;17195;50.838;7.214;2024-03-23T15:31:53;4.60;99.90
30399;DHT22;17195;50.838;7.214;2024-03-23T15:34:19;4.30;99.90
30399;DHT22;17195;50.838;7.214;2024-03-23T15:36:47;4.20;99.90
30399;DHT22;17195;50.838;7.214;2024-03-23T15:39:14;4.20;99.90
30399;DHT22;17195;50.838;7.214;2024-03-23T15:41:40;4.30;99.90
30399;DHT22;17195;50.838;7.214;2024-03-23T15:44:06;4.50;99.90
30399;DHT22;17195;50.838;7.214;2024-03-23T15:46:31;5.20;99.90
30399;DHT22;17195;50.838;7.214;2024-03-23T15:48:57;5.90;99.90
30399;DHT22;17195;50.838;7.214;2024-03-23T15:51:22;6.30;99.90
30399;DHT22;17195;50.838;7.214;2024-03-23T15:53:49;6.50;99.90
30399;DHT22;17195;50.838;7.214;2024-03-23T15:56:17;6.60;99.90
30399;DHT22;17195;50.838;7.214;2024-03-23T15:58:43;6.70;99.90
30399;DHT22;17195;50.838;7.214;2024-03-23T16:01:09;6.80;99.90
30399;DHT22;17195;50.838;7.214;2024-03-23T16:03:36;7.30;99.90
30399;DHT22;17195;50.838;7.214;2024-03-23T16:06:04;8.20;99.90
30399;DHT22;17195;50.838;7.214;2024-03-23T16:08:30;8.60;99.90
30399;DHT22;17195;50.838;7.214;2024-03-23T16:11:03;8.60;99.90
30399;DHT22;17195;50.838;7.214;2024-03-23T16:13:29;8.60;99.90
30399;DHT22;17195;50.838;7.214;2024-03-23T16:15:59;8.60;99.90
30399;DHT22;17195;50.838;7.214;2024-03-23T16:18:25;8.40;99.90
30399;DHT22;17195;50.838;7.214;2024-03-23T16:20:58;8.20;99.90
30399;DHT22;17195;50.838;7.214;2024-03-23T16:23:25;7.90;99.90
30399;DHT22;17195;50.838;7.214;2024-03-23T16:25:52;7.60;99.90
30399;DHT22;17195;50.838;7.214;2024-03-23T16:28:37;7.40;99.90
30399;DHT22;17195;50.838;7.214;2024-03-23T16:31:04;7.10;99.90
30399;DHT22;17195;50.838;7.214;2024-03-23T16:33:30;7.00;99.90
30399;DHT22;17195;50.838;7.214;2024-03-23T16:36:07;6.80;99.90
30399;DHT22;17195;50.838;7.214;2024-03-23T16:38:38;6.60;99.90
30399;DHT22;17195;50.838;7.214;2024-03-23T16:41:13;6.30;99.90